Terminal Aerodrome Forecast
Issued by NWS

Current Version | Previous Version | Text Only | Print | Product List | Glossary On
Versions: 1 2 3 4 5 6 7 8 9 10 11 12 13 14 15 16 17 18 19 20 21 22
000
FTUS43 KGRB 261134
TAFRHI
TAF
KRHI 261134Z 2612/2712 21009G15KT P6SM -SN OVC035
      TEMPO 2612/2616 3SM -SN OVC020
     FM261600 23011G20KT P6SM -SN OVC025
      TEMPO 2616/2620 1 1/2SM -SN OVC015
     FM262200 25010G18KT P6SM VCSH BKN025
     FM262300 28008KT P6SM VCSH BKN035
     FM270100 29005KT P6SM SCT020 BKN050
     FM270600 00000KT P6SM FEW014 BKN050=

USA.gov is the U.S. government's official web portal to all federal, state and local government web resources and services.